createdAt,value
2023-04-16T00:01:37.368Z,3.50
2023-04-16T00:04:04.210Z,3.10
2023-04-16T00:06:32.093Z,3.08
2023-04-16T00:08:58.647Z,2.97
2023-04-16T00:11:25.447Z,3.40
2023-04-16T00:13:51.883Z,3.45
2023-04-16T00:16:18.368Z,3.70
2023-04-16T00:18:44.943Z,3.70
2023-04-16T00:21:11.395Z,3.03
2023-04-16T00:23:38.213Z,3.95
2023-04-16T00:26:04.891Z,3.17
2023-04-16T00:28:31.328Z,3.78
2023-04-16T00:30:57.975Z,3.60
2023-04-16T00:33:24.458Z,3.55
2023-04-16T00:35:51.185Z,3.70
2023-04-16T00:38:17.839Z,3.75
2023-04-16T00:40:44.401Z,3.90
2023-04-16T00:43:10.910Z,3.67
2023-04-16T00:45:37.463Z,4.13
2023-04-16T00:48:04.588Z,4.00
2023-04-16T00:50:31.436Z,4.75
2023-04-16T00:52:58.168Z,4.00
2023-04-16T00:55:24.836Z,3.80
2023-04-16T00:57:51.285Z,4.10
2023-04-16T01:00:17.751Z,4.35
2023-04-16T01:02:44.462Z,4.40
2023-04-16T01:05:11.440Z,4.03
2023-04-16T01:07:37.943Z,4.68
2023-04-16T01:10:04.719Z,4.57
2023-04-16T01:12:31.248Z,4.70
2023-04-16T01:14:57.824Z,4.90
2023-04-16T01:17:24.401Z,5.22
2023-04-16T01:19:50.951Z,4.85
2023-04-16T01:22:17.485Z,5.25
2023-04-16T01:24:44.958Z,5.07
2023-04-16T01:27:11.527Z,4.70
2023-04-16T01:29:38.092Z,5.15
2023-04-16T01:32:04.544Z,4.97
2023-04-16T01:34:31.009Z,5.13
2023-04-16T01:36:57.521Z,5.10
2023-04-16T01:39:23.967Z,4.93
2023-04-16T01:41:50.558Z,5.40
2023-04-16T01:44:17.048Z,5.63
2023-04-16T01:46:44.309Z,5.53
2023-04-16T01:49:11.130Z,5.68
2023-04-16T01:51:37.878Z,6.80
2023-04-16T01:54:04.547Z,5.95
2023-04-16T01:56:31.052Z,6.82
2023-04-16T01:58:57.493Z,7.80
2023-04-16T02:01:24.276Z,6.22
2023-04-16T02:03:51.663Z,6.50
2023-04-16T02:06:18.272Z,7.00
2023-04-16T02:08:44.768Z,6.97
2023-04-16T02:11:11.323Z,7.07
2023-04-16T02:13:37.761Z,7.07
2023-04-16T02:16:04.511Z,7.25
2023-04-16T02:18:31.063Z,7.05
2023-04-16T02:20:58.698Z,6.65
2023-04-16T02:23:25.316Z,7.35
2023-04-16T02:25:51.767Z,7.30
2023-04-16T02:28:18.317Z,6.95
2023-04-16T02:30:44.889Z,7.60
2023-04-16T02:33:12.962Z,7.95
2023-04-16T02:35:40.443Z,7.32
2023-04-16T02:38:07.920Z,8.40
2023-04-16T02:40:34.623Z,8.48
2023-04-16T02:43:01.171Z,7.97
2023-04-16T02:45:27.988Z,7.88
2023-04-16T02:47:54.596Z,7.60
2023-04-16T02:50:21.216Z,8.18
2023-04-16T02:52:48.600Z,7.75
2023-04-16T02:55:15.128Z,7.45
2023-04-16T02:57:42.491Z,8.75
2023-04-16T03:00:09.859Z,8.23
2023-04-16T03:02:36.486Z,8.05
2023-04-16T03:05:03.976Z,8.48
2023-04-16T03:07:30.524Z,7.57
2023-04-16T03:09:57.220Z,7.47
2023-04-16T03:12:23.765Z,7.32
2023-04-16T03:14:53.244Z,7.72
2023-04-16T03:17:19.738Z,7.45
2023-04-16T03:19:46.267Z,7.45
2023-04-16T03:22:12.744Z,7.25
2023-04-16T03:24:39.244Z,6.85
2023-04-16T03:27:05.706Z,7.07
2023-04-16T03:29:33.243Z,7.97
2023-04-16T03:31:59.718Z,7.10
2023-04-16T03:34:26.649Z,7.43
2023-04-16T03:36:53.143Z,8.52
2023-04-16T03:39:19.711Z,8.25
2023-04-16T03:41:46.280Z,9.20
2023-04-16T03:44:12.754Z,7.32
2023-04-16T03:46:39.265Z,8.02
2023-04-16T03:49:05.813Z,8.57
2023-04-16T03:51:32.436Z,8.30
2023-04-16T03:53:58.915Z,8.00
2023-04-16T03:56:25.644Z,7.63
2023-04-16T03:58:52.083Z,7.82
2023-04-16T04:01:18.715Z,7.88
2023-04-16T04:03:45.479Z,8.05
2023-04-16T04:06:12.100Z,7.90
2023-04-16T04:08:38.744Z,8.50
2023-04-16T04:11:05.216Z,8.25
2023-04-16T04:13:31.695Z,9.10
2023-04-16T04:15:58.188Z,8.88
2023-04-16T04:18:24.743Z,8.98
2023-04-16T04:20:52.540Z,9.15
2023-04-16T04:23:19.101Z,9.02
2023-04-16T04:25:46.009Z,8.73
2023-04-16T04:28:12.615Z,10.07
2023-04-16T04:30:39.166Z,9.57
2023-04-16T04:33:06.314Z,9.48
2023-04-16T04:35:33.248Z,8.98
2023-04-16T04:37:59.694Z,8.77
2023-04-16T04:40:26.366Z,8.02
2023-04-16T04:42:52.925Z,8.60
2023-04-16T04:45:19.436Z,8.23
2023-04-16T04:47:45.972Z,8.98
2023-04-16T04:50:12.486Z,8.88
2023-04-16T04:52:38.916Z,8.10
2023-04-16T04:55:06.050Z,7.95
2023-04-16T04:57:32.593Z,8.85
2023-04-16T04:59:59.218Z,8.43
2023-04-16T05:02:25.805Z,8.05
2023-04-16T05:04:52.418Z,8.93
2023-04-16T05:07:18.970Z,8.30
2023-04-16T05:09:45.502Z,8.55
2023-04-16T05:12:12.021Z,8.80
2023-04-16T05:14:38.501Z,7.13
2023-04-16T05:17:05.345Z,7.10
2023-04-16T05:19:31.833Z,6.60
2023-04-16T05:21:58.295Z,6.22
2023-04-16T05:24:24.735Z,4.72
2023-04-16T05:26:51.367Z,4.25
2023-04-16T05:29:17.864Z,4.13
2023-04-16T05:31:44.409Z,4.30
2023-04-16T05:34:11.226Z,3.65
2023-04-16T05:36:37.723Z,3.10
2023-04-16T05:39:04.181Z,3.08
2023-04-16T05:41:30.855Z,3.50
2023-04-16T05:43:57.463Z,3.63
2023-04-16T05:46:23.975Z,3.40
2023-04-16T05:48:50.613Z,2.88
2023-04-16T05:51:17.097Z,3.53
2023-04-16T05:53:43.625Z,3.80
2023-04-16T05:56:10.256Z,2.50
2023-04-16T05:58:36.699Z,2.60
2023-04-16T06:01:03.410Z,2.60
2023-04-16T06:03:30.175Z,2.80
2023-04-16T06:05:56.791Z,2.83
2023-04-16T06:08:23.598Z,2.65
2023-04-16T06:10:50.267Z,2.30
2023-04-16T06:13:16.738Z,2.53
2023-04-16T06:15:43.318Z,2.58
2023-04-16T06:18:09.854Z,2.78
2023-04-16T06:20:36.742Z,2.47
2023-04-16T06:23:03.279Z,2.42
2023-04-16T06:25:29.745Z,2.78
2023-04-16T06:27:56.256Z,2.45
2023-04-16T06:30:22.771Z,2.42
2023-04-16T06:32:49.531Z,2.60
2023-04-16T06:35:16.304Z,2.60
2023-04-16T06:37:42.836Z,2.40
2023-04-16T06:40:09.802Z,2.13
2023-04-16T06:42:36.593Z,2.40
2023-04-16T06:45:03.276Z,2.13
2023-04-16T06:47:29.900Z,2.33
2023-04-16T06:49:56.507Z,2.85
2023-04-16T06:52:23.121Z,2.50
2023-04-16T06:54:49.695Z,2.58
2023-04-16T06:57:16.508Z,2.28
2023-04-16T06:59:43.170Z,2.22
2023-04-16T07:02:10.648Z,2.20
2023-04-16T07:04:37.325Z,2.15
2023-04-16T07:07:03.805Z,2.47
2023-04-16T07:09:30.287Z,2.35
2023-04-16T07:11:56.902Z,2.47
2023-04-16T07:14:23.424Z,2.60
2023-04-16T07:16:50.175Z,2.70
2023-04-16T07:19:16.801Z,2.17
2023-04-16T07:21:43.792Z,2.40
2023-04-16T07:24:14.188Z,2.63
2023-04-16T07:26:41.041Z,1.98
2023-04-16T07:29:07.664Z,2.35
2023-04-16T07:31:34.308Z,2.10
2023-04-16T07:34:00.790Z,2.17
2023-04-16T07:36:28.397Z,2.40
2023-04-16T07:38:56.110Z,2.30
2023-04-16T07:41:22.609Z,3.30
2023-04-16T07:43:49.125Z,1.90
2023-04-16T07:46:16.109Z,2.33
2023-04-16T07:48:42.986Z,2.65
2023-04-16T07:51:09.486Z,2.28
2023-04-16T07:53:36.054Z,2.58
2023-04-16T07:56:02.506Z,2.40
2023-04-16T07:58:28.937Z,2.30
2023-04-16T08:00:55.862Z,2.47
2023-04-16T08:03:22.735Z,2.28
2023-04-16T08:05:49.396Z,2.30
2023-04-16T08:08:16.061Z,2.80
2023-04-16T08:10:42.566Z,2.38
2023-04-16T08:13:09.069Z,2.72
2023-04-16T08:15:35.581Z,2.95
2023-04-16T08:18:02.204Z,2.78
2023-04-16T08:20:28.714Z,2.65
2023-04-16T08:22:55.240Z,2.55
2023-04-16T08:25:23.737Z,2.38
2023-04-16T08:27:50.574Z,2.80
2023-04-16T08:30:17.181Z,3.13
2023-04-16T08:32:43.821Z,2.70
2023-04-16T08:35:10.580Z,2.97
2023-04-16T08:37:37.045Z,3.00
2023-04-16T08:40:03.955Z,2.65
2023-04-16T08:42:40.616Z,3.30
2023-04-16T08:45:11.858Z,2.80
2023-04-16T08:47:38.838Z,2.80
2023-04-16T08:50:05.949Z,2.50
2023-04-16T08:52:32.796Z,2.90
2023-04-16T08:55:06.197Z,2.53
2023-04-16T09:00:07.770Z,2.83
2023-04-16T09:02:35.059Z,2.80
2023-04-16T09:05:05.163Z,2.90
2023-04-16T09:07:33.392Z,2.85
2023-04-16T09:10:01.531Z,2.60
2023-04-16T09:12:28.059Z,3.08
2023-04-16T09:14:57.114Z,3.22
2023-04-16T09:17:23.723Z,3.45
2023-04-16T09:19:50.404Z,3.10
2023-04-16T09:22:17.227Z,3.30
2023-04-16T09:24:43.698Z,3.20
2023-04-16T09:27:12.041Z,3.50
2023-04-16T09:29:40.991Z,3.58
2023-04-16T09:32:09.469Z,3.70
2023-04-16T09:34:58.529Z,3.22
2023-04-16T09:37:31.903Z,3.97
2023-04-16T09:42:32.264Z,3.92
2023-04-16T09:45:00.931Z,3.47
2023-04-16T09:47:43.174Z,3.80
2023-04-16T09:50:15.859Z,3.45
2023-04-16T09:52:45.754Z,3.80
2023-04-16T09:55:13.097Z,3.80
2023-04-16T09:57:39.667Z,3.35
2023-04-16T10:00:09.054Z,3.70
2023-04-16T10:02:39.051Z,3.38
2023-04-16T10:05:06.383Z,3.83
2023-04-16T10:07:37.398Z,3.63
2023-04-16T10:10:05.330Z,3.53
2023-04-16T10:12:33.004Z,3.47
2023-04-16T10:14:59.755Z,3.80
2023-04-16T10:17:26.598Z,3.97
2023-04-16T10:19:54.650Z,3.90
2023-04-16T10:22:21.420Z,4.43
2023-04-16T10:24:48.810Z,5.07
2023-04-16T10:27:16.604Z,4.15
2023-04-16T10:29:44.617Z,4.45
2023-04-16T10:32:12.088Z,4.03
2023-04-16T10:34:39.158Z,4.35
2023-04-16T10:37:05.673Z,4.82
2023-04-16T10:39:37.403Z,4.30
2023-04-16T10:42:12.177Z,4.22
2023-04-16T10:44:43.400Z,4.22
2023-04-16T10:47:13.263Z,4.40
2023-04-16T10:49:41.091Z,4.40
2023-04-16T10:52:11.437Z,4.70
2023-04-16T10:54:38.828Z,3.90
2023-04-16T10:57:06.985Z,5.18
2023-04-16T10:59:35.972Z,4.57
2023-04-16T11:02:08.899Z,4.57
2023-04-16T11:04:37.618Z,4.60
2023-04-16T11:07:16.370Z,4.53
2023-04-16T11:09:56.522Z,4.82
2023-04-16T11:12:29.309Z,4.85
2023-04-16T11:15:12.055Z,5.43
2023-04-16T11:17:43.340Z,5.00
2023-04-16T11:20:19.245Z,4.75
2023-04-16T11:22:48.829Z,4.10
2023-04-16T11:25:23.229Z,4.80
2023-04-16T11:27:50.932Z,4.40
2023-04-16T11:30:18.071Z,4.25
2023-04-16T11:32:46.415Z,4.35
2023-04-16T11:35:18.352Z,4.68
2023-04-16T11:37:45.856Z,4.25
2023-04-16T11:40:13.022Z,4.32
2023-04-16T11:42:41.122Z,4.40
2023-04-16T11:45:09.561Z,4.75
2023-04-16T11:47:46.214Z,4.55
2023-04-16T11:50:30.974Z,4.30
2023-04-16T11:53:03.993Z,3.88
2023-04-16T11:55:31.149Z,4.00
2023-04-16T11:57:57.711Z,3.70
2023-04-16T12:00:24.873Z,4.50
2023-04-16T12:02:55.368Z,4.40
2023-04-16T12:05:38.717Z,4.43
2023-04-16T12:08:07.804Z,3.80
2023-04-16T12:10:38.587Z,4.35
2023-04-16T12:13:16.348Z,4.88
2023-04-16T12:15:49.730Z,4.07
2023-04-16T12:20:47.509Z,3.85
2023-04-16T12:23:28.722Z,3.63
2023-04-16T12:25:56.332Z,3.88
2023-04-16T12:28:38.494Z,3.40
2023-04-16T12:31:05.845Z,3.28
2023-04-16T12:33:35.394Z,3.50
2023-04-16T12:36:03.586Z,3.33
2023-04-16T12:38:30.263Z,3.10
2023-04-16T12:40:59.767Z,3.50
2023-04-16T12:43:26.616Z,3.78
2023-04-16T12:45:53.288Z,3.55
2023-04-16T12:48:19.918Z,3.42
2023-04-16T12:50:46.529Z,3.42
2023-04-16T12:53:13.050Z,3.28
2023-04-16T12:55:39.491Z,3.45
2023-04-16T12:58:06.683Z,3.03
2023-04-16T13:00:33.182Z,3.00
2023-04-16T13:02:59.740Z,2.90
2023-04-16T13:05:26.636Z,3.08
2023-04-16T13:07:53.898Z,3.60
2023-04-16T13:10:22.044Z,3.50
2023-04-16T13:12:48.956Z,3.88
2023-04-16T13:15:15.822Z,3.70
2023-04-16T13:17:42.356Z,3.95
2023-04-16T13:20:09.532Z,4.25
2023-04-16T13:22:36.100Z,4.70
2023-04-16T13:25:02.606Z,4.90
2023-04-16T13:27:29.026Z,4.82
2023-04-16T13:29:55.604Z,5.03
2023-04-16T13:32:22.115Z,4.95
2023-04-16T13:34:48.630Z,5.88
2023-04-16T13:37:15.297Z,5.22
2023-04-16T13:39:41.772Z,6.20
2023-04-16T13:42:08.345Z,5.68
2023-04-16T13:44:34.884Z,5.85
2023-04-16T13:47:01.483Z,5.55
2023-04-16T13:49:28.230Z,5.13
2023-04-16T13:51:54.699Z,5.85
2023-04-16T13:54:21.187Z,5.78
2023-04-16T13:56:49.567Z,5.38
2023-04-16T13:59:16.579Z,5.78
2023-04-16T14:01:43.081Z,5.60
2023-04-16T14:04:09.629Z,6.55
2023-04-16T14:06:36.326Z,6.63
2023-04-16T14:09:02.911Z,5.57
2023-04-16T14:11:29.480Z,5.68
2023-04-16T14:13:56.200Z,6.07
2023-04-16T14:16:22.986Z,6.68
2023-04-16T14:18:49.505Z,6.80
2023-04-16T14:21:16.360Z,7.30
2023-04-16T14:23:42.838Z,6.50
2023-04-16T14:26:09.449Z,6.82
2023-04-16T14:28:35.976Z,6.63
2023-04-16T14:31:02.470Z,6.88
2023-04-16T14:33:29.087Z,7.75
2023-04-16T14:35:55.738Z,7.05
2023-04-16T14:38:22.266Z,7.72
2023-04-16T14:40:49.018Z,8.20
2023-04-16T14:43:15.774Z,8.13
2023-04-16T14:45:42.517Z,8.65
2023-04-16T14:48:09.101Z,7.93
2023-04-16T14:50:39.167Z,8.43
2023-04-16T14:53:05.966Z,8.13
2023-04-16T14:55:32.682Z,8.68
2023-04-16T14:57:59.862Z,8.13
2023-04-16T15:00:26.419Z,12.75
2023-04-16T15:02:54.161Z,13.43
2023-04-16T15:05:20.844Z,9.35
2023-04-16T15:07:47.538Z,8.48
2023-04-16T15:10:14.068Z,8.70
2023-04-16T15:12:40.800Z,7.35
2023-04-16T15:15:08.634Z,8.50
2023-04-16T15:17:35.506Z,7.53
2023-04-16T15:20:02.109Z,8.15
2023-04-16T15:22:28.650Z,8.25
2023-04-16T15:24:55.198Z,7.65
2023-04-16T15:27:21.653Z,8.00
2023-04-16T15:29:49.584Z,7.22
2023-04-16T15:32:16.624Z,9.07
2023-04-16T15:34:43.157Z,7.70
2023-04-16T15:37:09.901Z,8.05
2023-04-16T15:39:36.423Z,7.50
2023-04-16T15:42:06.984Z,7.93
2023-04-16T15:44:34.330Z,7.15
2023-04-16T15:47:01.156Z,7.32
2023-04-16T15:49:27.733Z,7.38
2023-04-16T15:51:54.511Z,6.45
2023-04-16T15:54:21.499Z,7.40
2023-04-16T15:56:48.186Z,7.15
2023-04-16T15:59:14.668Z,6.78
2023-04-16T16:01:41.199Z,7.22
2023-04-16T16:04:08.088Z,7.05
2023-04-16T16:06:35.694Z,7.57
2023-04-16T16:09:02.233Z,6.45
2023-04-16T16:11:28.743Z,6.68
2023-04-16T16:13:55.442Z,6.88
2023-04-16T16:16:22.049Z,7.10
2023-04-16T16:18:48.790Z,7.22
2023-04-16T16:21:15.372Z,7.80
2023-04-16T16:23:42.039Z,7.50
2023-04-16T16:26:09.238Z,8.23
2023-04-16T16:28:38.803Z,8.02
2023-04-16T16:31:06.102Z,7.30
2023-04-16T16:33:33.148Z,7.60
2023-04-16T16:35:59.647Z,7.45
2023-04-16T16:38:26.210Z,7.85
2023-04-16T16:40:52.759Z,8.57
2023-04-16T16:43:19.508Z,8.25
2023-04-16T16:45:46.524Z,7.68
2023-04-16T16:48:13.065Z,7.97
2023-04-16T16:50:39.566Z,7.97
2023-04-16T16:53:06.387Z,7.53
2023-04-16T16:55:32.899Z,8.27
2023-04-16T16:57:59.758Z,7.57
2023-04-16T17:00:26.246Z,7.97
2023-04-16T17:02:52.916Z,7.72
2023-04-16T17:05:19.890Z,7.70
2023-04-16T17:07:46.719Z,8.02
2023-04-16T17:10:20.043Z,7.60
2023-04-16T17:15:18.581Z,8.65
2023-04-16T17:17:47.239Z,7.85
2023-04-16T17:20:14.291Z,8.18
2023-04-16T17:22:40.949Z,8.15
2023-04-16T17:25:08.203Z,8.18
2023-04-16T17:27:34.917Z,9.15
2023-04-16T17:30:02.386Z,8.70
2023-04-16T17:32:29.641Z,9.23
2023-04-16T17:34:56.521Z,8.82
2023-04-16T17:37:23.692Z,8.02
2023-04-16T17:39:51.281Z,8.93
2023-04-16T17:42:17.726Z,8.38
2023-04-16T17:44:44.219Z,9.75
2023-04-16T17:47:10.813Z,9.15
2023-04-16T17:49:37.274Z,9.15
2023-04-16T17:52:04.090Z,9.68
2023-04-16T17:54:30.565Z,11.15
2023-04-16T17:56:57.603Z,11.00
2023-04-16T17:59:24.121Z,10.15
2023-04-16T18:01:50.883Z,10.60
2023-04-16T18:04:18.111Z,9.95
2023-04-16T18:06:44.956Z,12.30
2023-04-16T18:09:12.054Z,11.18
2023-04-16T18:11:38.608Z,9.73
2023-04-16T18:14:05.246Z,10.30
2023-04-16T18:16:32.268Z,10.30
2023-04-16T18:18:59.071Z,10.65
2023-04-16T18:21:25.994Z,10.05
2023-04-16T18:23:52.476Z,9.93
2023-04-16T18:26:22.262Z,10.55
2023-04-16T18:28:49.314Z,10.40
2023-04-16T18:31:16.015Z,10.80
2023-04-16T18:33:53.947Z,10.40
2023-04-16T18:36:22.609Z,10.43
2023-04-16T18:39:00.076Z,10.73
2023-04-16T18:41:28.017Z,10.55
2023-04-16T18:43:54.778Z,10.32
2023-04-16T18:46:21.307Z,10.93
2023-04-16T18:48:47.812Z,9.93
2023-04-16T18:51:16.088Z,10.05
2023-04-16T18:53:44.470Z,10.55
2023-04-16T18:56:11.642Z,10.43
2023-04-16T18:58:38.197Z,10.02
2023-04-16T19:01:07.783Z,9.60
2023-04-16T19:03:34.581Z,10.40
2023-04-16T19:06:01.478Z,10.98
2023-04-16T19:08:27.986Z,10.32
2023-04-16T19:10:54.479Z,10.73
2023-04-16T19:13:20.946Z,10.90
2023-04-16T19:15:47.472Z,10.27
2023-04-16T19:18:13.984Z,10.80
2023-04-16T19:20:40.663Z,9.95
2023-04-16T19:23:09.061Z,10.30
2023-04-16T19:25:36.488Z,11.02
2023-04-16T19:28:03.819Z,10.73
2023-04-16T19:30:30.647Z,9.05
2023-04-16T19:32:57.347Z,10.35
2023-04-16T19:35:24.169Z,11.77
2023-04-16T19:37:50.939Z,10.05
2023-04-16T19:40:17.527Z,10.95
2023-04-16T19:42:45.394Z,11.07
2023-04-16T19:45:11.972Z,11.63
2023-04-16T19:47:38.621Z,11.27
2023-04-16T19:50:05.897Z,11.05
2023-04-16T19:52:37.388Z,10.98
2023-04-16T19:55:05.111Z,11.10
2023-04-16T19:57:31.599Z,10.90
2023-04-16T19:59:58.037Z,10.70
2023-04-16T20:02:24.692Z,12.07
2023-04-16T20:04:52.990Z,11.82
2023-04-16T20:07:20.041Z,11.52
2023-04-16T20:09:46.588Z,10.63
2023-04-16T20:12:13.058Z,10.68
2023-04-16T20:14:40.072Z,10.85
2023-04-16T20:17:09.841Z,11.20
2023-04-16T20:19:38.403Z,12.40
2023-04-16T20:22:05.038Z,10.95
2023-04-16T20:24:31.648Z,12.05
2023-04-16T20:26:58.323Z,12.13
2023-04-16T20:29:24.763Z,11.23
2023-04-16T20:31:52.220Z,11.25
2023-04-16T20:34:18.756Z,11.95
2023-04-16T20:36:45.596Z,11.60
2023-04-16T20:39:12.605Z,11.57
2023-04-16T20:41:44.058Z,11.52
2023-04-16T20:44:18.108Z,11.02
2023-04-16T20:46:49.402Z,10.85
2023-04-16T20:49:17.706Z,10.77
2023-04-16T20:51:44.371Z,10.88
2023-04-16T20:54:10.965Z,10.30
2023-04-16T20:56:37.464Z,11.23
2023-04-16T20:59:03.937Z,10.63
2023-04-16T21:01:30.833Z,9.00
2023-04-16T21:03:57.623Z,10.18
2023-04-16T21:06:24.229Z,9.98
2023-04-16T21:08:50.693Z,10.57
2023-04-16T21:11:17.131Z,9.60
2023-04-16T21:13:43.603Z,9.38
2023-04-16T21:16:12.533Z,9.98
2023-04-16T21:18:39.202Z,9.95
2023-04-16T21:21:06.029Z,10.18
2023-04-16T21:23:32.620Z,10.32
2023-04-16T21:25:59.147Z,9.82
2023-04-16T21:28:25.761Z,10.70
2023-04-16T21:30:52.844Z,10.13
2023-04-16T21:33:19.505Z,9.43
2023-04-16T21:35:52.268Z,9.25
2023-04-16T21:38:19.811Z,10.65
2023-04-16T21:40:50.515Z,10.00
2023-04-16T21:43:17.885Z,10.23
2023-04-16T21:45:44.435Z,10.35
2023-04-16T21:48:11.054Z,9.57
2023-04-16T21:50:37.749Z,10.13
2023-04-16T21:53:06.470Z,8.80
2023-04-16T21:55:34.669Z,9.43
2023-04-16T21:58:01.779Z,9.23
2023-04-16T22:00:28.719Z,8.52
2023-04-16T22:02:56.382Z,9.00
2023-04-16T22:05:25.709Z,8.75
2023-04-16T22:07:53.076Z,8.63
2023-04-16T22:10:19.629Z,8.82
2023-04-16T22:12:46.567Z,9.18
2023-04-16T22:15:13.975Z,9.35
2023-04-16T22:17:40.955Z,8.50
2023-04-16T22:20:11.528Z,8.75
2023-04-16T22:22:38.629Z,8.55
2023-04-16T22:25:06.025Z,8.20
2023-04-16T22:27:34.011Z,8.90
2023-04-16T22:30:01.548Z,8.75
2023-04-16T22:32:28.108Z,9.18
2023-04-16T22:34:54.718Z,8.43
2023-04-16T22:37:21.171Z,8.73
2023-04-16T22:39:47.650Z,8.77
2023-04-16T22:42:14.153Z,8.50
2023-04-16T22:44:40.720Z,8.63
2023-04-16T22:47:07.240Z,8.15
2023-04-16T22:49:33.767Z,8.02
2023-04-16T22:52:00.811Z,9.00
2023-04-16T22:54:31.173Z,7.80
2023-04-16T22:56:58.024Z,8.32
2023-04-16T22:59:25.263Z,8.30
2023-04-16T23:01:52.273Z,7.57
2023-04-16T23:04:18.946Z,7.63
2023-04-16T23:06:46.308Z,7.47
2023-04-16T23:09:13.066Z,8.32
2023-04-16T23:11:39.709Z,8.05
2023-04-16T23:14:06.206Z,8.23
2023-04-16T23:16:32.763Z,7.82
2023-04-16T23:18:59.228Z,8.90
2023-04-16T23:21:25.981Z,8.20
2023-04-16T23:23:52.461Z,7.88
2023-04-16T23:26:18.942Z,7.93
2023-04-16T23:28:45.434Z,8.45
2023-04-16T23:31:11.989Z,8.82
2023-04-16T23:33:38.435Z,8.40
2023-04-16T23:36:05.579Z,7.88
2023-04-16T23:38:32.018Z,9.38
2023-04-16T23:40:58.525Z,9.13
2023-04-16T23:43:25.086Z,8.38
2023-04-16T23:45:51.607Z,9.55
2023-04-16T23:48:18.160Z,8.70
2023-04-16T23:50:44.652Z,8.85
2023-04-16T23:53:11.204Z,9.13
2023-04-16T23:55:37.758Z,9.90
2023-04-16T23:58:04.209Z,9.50
